createdAt,value
2023-04-06T00:02:11.112Z,100713.56
2023-04-06T00:04:37.737Z,100710.94
2023-04-06T00:07:04.439Z,100709.19
2023-04-06T00:09:30.984Z,100706.63
2023-04-06T00:11:58.703Z,100709.22
2023-04-06T00:14:25.422Z,100713.50
2023-04-06T00:16:52.027Z,100708.41
2023-04-06T00:19:18.555Z,100700.63
2023-04-06T00:21:45.527Z,100704.03
2023-04-06T00:24:12.183Z,100697.13
2023-04-06T00:26:38.700Z,100698.03
2023-04-06T00:29:05.439Z,100697.19
2023-04-06T00:31:32.019Z,100694.59
2023-04-06T00:33:59.211Z,100693.75
2023-04-06T00:36:26.671Z,100693.75
2023-04-06T00:38:53.369Z,100692.88
2023-04-06T00:41:21.582Z,100691.97
2023-04-06T00:43:48.271Z,100692.03
2023-04-06T00:46:15.058Z,100692.03
2023-04-06T00:48:41.833Z,100683.44
2023-04-06T00:51:08.393Z,100688.59
2023-04-06T00:53:34.926Z,100688.59
2023-04-06T00:56:02.334Z,100686.03
2023-04-06T00:58:38.816Z,100682.63
2023-04-06T01:01:07.722Z,100678.28
2023-04-06T01:03:35.824Z,100669.69
2023-04-06T01:06:22.684Z,100670.59
2023-04-06T01:09:18.166Z,100668.03
2023-04-06T01:12:05.039Z,100664.59
2023-04-06T01:14:54.317Z,100680.91
2023-04-06T01:17:41.598Z,100670.59
2023-04-06T01:20:33.172Z,100674.91
2023-04-06T01:23:01.999Z,100671.47
2023-04-06T01:25:28.829Z,100669.78
2023-04-06T01:28:06.242Z,100666.34
2023-04-06T01:30:55.270Z,100665.47
2023-04-06T01:33:40.876Z,100657.75
2023-04-06T01:36:10.955Z,100659.47
2023-04-06T01:38:37.484Z,100656.03
2023-04-06T01:41:04.314Z,100657.75
2023-04-06T01:43:38.333Z,100654.31
2023-04-06T01:46:07.822Z,100650.03
2023-04-06T01:48:37.443Z,100650.03
2023-04-06T01:51:13.890Z,100652.63
2023-04-06T01:53:49.275Z,100648.34
2023-04-06T01:56:17.166Z,100644.91
2023-04-06T01:58:52.553Z,100649.19
2023-04-06T02:01:19.631Z,100645.75
2023-04-06T02:03:53.000Z,100647.47
2023-04-06T02:06:19.730Z,100644.94
2023-04-06T02:08:46.680Z,100634.63
2023-04-06T02:11:13.622Z,100644.06
2023-04-06T02:13:45.403Z,100634.63
2023-04-06T02:16:12.440Z,100638.06
2023-04-06T02:18:39.052Z,100636.34
2023-04-06T02:21:05.798Z,100632.91
2023-04-06T02:23:32.394Z,100634.63
2023-04-06T02:25:58.954Z,100628.63
2023-04-06T02:28:25.632Z,100627.75
2023-04-06T02:30:52.209Z,100625.19
2023-04-06T02:33:19.981Z,100630.31
2023-04-06T02:35:47.922Z,100628.63
2023-04-06T02:38:14.531Z,100626.88
2023-04-06T02:40:41.566Z,100629.47
2023-04-06T02:43:21.527Z,100636.34
2023-04-06T02:45:51.497Z,100628.63
2023-04-06T02:48:19.481Z,100630.34
2023-04-06T02:50:46.151Z,100626.06
2023-04-06T02:53:12.976Z,100632.88
2023-04-06T02:55:40.512Z,100635.47
2023-04-06T02:58:07.450Z,100639.75
2023-04-06T03:00:43.741Z,100629.47
2023-04-06T03:03:10.422Z,100638.91
2023-04-06T03:05:37.706Z,100642.31
2023-04-06T03:08:05.176Z,100638.03
2023-04-06T03:10:42.274Z,100632.88
2023-04-06T03:13:08.996Z,100638.88
2023-04-06T03:16:02.118Z,100638.91
2023-04-06T03:18:29.420Z,100642.28
2023-04-06T03:20:57.310Z,100644.00
2023-04-06T03:23:29.768Z,100638.88
2023-04-06T03:25:59.943Z,100646.56
2023-04-06T03:28:27.332Z,100647.44
2023-04-06T03:30:59.873Z,100642.28
2023-04-06T03:34:01.796Z,100643.00
2023-04-06T03:36:32.159Z,100649.06
2023-04-06T03:38:59.685Z,100644.78
2023-04-06T03:41:26.197Z,100641.38
2023-04-06T03:44:01.668Z,100649.09
2023-04-06T03:46:28.419Z,100650.81
2023-04-06T03:48:57.612Z,100649.94
2023-04-06T03:51:24.677Z,100649.09
2023-04-06T03:53:51.184Z,100657.63
2023-04-06T03:56:17.706Z,100652.50
2023-04-06T03:58:46.186Z,100648.16
2023-04-06T04:01:13.211Z,100653.28
2023-04-06T04:03:39.856Z,100654.13
2023-04-06T04:06:06.708Z,100655.88
2023-04-06T04:08:33.344Z,100656.72
2023-04-06T04:11:00.309Z,100659.34
2023-04-06T04:13:26.907Z,100661.03
2023-04-06T04:15:54.125Z,100660.16
2023-04-06T04:18:20.720Z,100671.25
2023-04-06T04:20:47.349Z,100671.28
2023-04-06T04:23:14.044Z,100673.00
2023-04-06T04:25:41.756Z,100675.56
2023-04-06T04:28:08.268Z,100674.72
2023-04-06T04:30:36.248Z,100673.84
2023-04-06T04:33:06.939Z,100679.84
2023-04-06T04:35:33.466Z,100675.50
2023-04-06T04:38:00.409Z,100677.22
2023-04-06T04:40:27.322Z,100682.34
2023-04-06T04:43:02.124Z,100678.88
2023-04-06T04:45:32.240Z,100681.44
2023-04-06T04:48:06.027Z,100679.72
2023-04-06T04:50:45.639Z,100687.41
2023-04-06T04:53:13.938Z,100688.25
2023-04-06T04:55:41.878Z,100680.50
2023-04-06T04:58:09.936Z,100682.22
2023-04-06T05:00:47.642Z,100685.59
2023-04-06T05:03:26.833Z,100685.63
2023-04-06T05:06:00.338Z,100689.91
2023-04-06T05:08:31.117Z,100690.72
2023-04-06T05:10:58.097Z,100694.19
2023-04-06T05:13:25.338Z,100687.34
2023-04-06T05:15:54.170Z,100695.88
2023-04-06T05:18:25.079Z,100701.88
2023-04-06T05:20:52.797Z,100697.59
2023-04-06T05:23:24.483Z,100702.75
2023-04-06T05:25:52.266Z,100700.19
2023-04-06T05:28:22.067Z,100698.44
2023-04-06T05:30:48.770Z,100695.88
2023-04-06T05:33:16.570Z,100698.44
2023-04-06T05:36:07.976Z,100698.44
2023-04-06T05:38:37.834Z,100696.81
2023-04-06T05:41:14.772Z,100704.47
2023-04-06T05:43:42.375Z,100698.44
2023-04-06T05:46:08.923Z,100698.47
2023-04-06T05:48:35.995Z,100699.44
2023-04-06T05:51:07.081Z,100691.78
2023-04-06T05:53:42.577Z,100694.34
2023-04-06T05:56:09.255Z,100701.25
2023-04-06T05:58:35.960Z,100702.91
2023-04-06T06:01:03.999Z,100695.25
2023-04-06T06:03:38.086Z,100697.91
2023-04-06T06:06:05.662Z,100698.78
2023-04-06T06:08:54.147Z,100704.00
2023-04-06T06:11:21.194Z,100702.28
2023-04-06T06:13:49.445Z,100708.34
2023-04-06T06:16:16.117Z,100694.63
2023-04-06T06:18:45.945Z,100699.78
2023-04-06T06:21:13.317Z,100700.66
2023-04-06T06:23:40.580Z,100700.69
2023-04-06T06:26:07.409Z,100704.13
2023-04-06T06:28:34.214Z,100703.28
2023-04-06T06:31:02.005Z,100698.13
2023-04-06T06:33:30.536Z,100697.25
2023-04-06T06:35:58.427Z,100698.13
2023-04-06T06:38:24.939Z,100697.22
2023-04-06T06:40:52.158Z,100692.03
2023-04-06T06:43:19.840Z,100698.06
2023-04-06T06:45:52.298Z,100696.31
2023-04-06T06:48:18.885Z,100694.53
2023-04-06T06:50:45.659Z,100695.41
2023-04-06T06:53:13.355Z,100702.25
2023-04-06T06:55:39.930Z,100691.94
2023-04-06T06:58:07.070Z,100697.91
2023-04-06T07:00:33.823Z,100695.31
2023-04-06T07:03:00.545Z,100697.81
2023-04-06T07:05:29.005Z,100692.59
2023-04-06T07:07:57.827Z,100697.69
2023-04-06T07:10:25.843Z,100695.94
2023-04-06T07:12:52.532Z,100686.28
2023-04-06T07:15:19.159Z,100696.69
2023-04-06T07:17:46.270Z,100693.91
2023-04-06T07:20:13.599Z,100691.19
2023-04-06T07:22:41.355Z,100690.31
2023-04-06T07:25:08.697Z,100693.72
2023-04-06T07:27:35.360Z,100686.69
2023-04-06T07:30:02.773Z,100697.69
2023-04-06T07:32:29.452Z,100696.63
2023-04-06T07:34:57.076Z,100700.25
2023-04-06T07:37:24.263Z,100690.53
2023-04-06T07:39:53.713Z,100696.47
2023-04-06T07:42:20.921Z,100691.63
2023-04-06T07:44:49.558Z,100691.41
2023-04-06T07:47:16.795Z,100697.34
2023-04-06T07:49:43.424Z,100696.28
2023-04-06T07:52:10.369Z,100697.03
2023-04-06T07:54:37.485Z,100694.16
2023-04-06T07:57:04.096Z,100690.31
2023-04-06T07:59:30.731Z,100685.84
2023-04-06T08:01:57.390Z,100690.97
2023-04-06T08:04:24.162Z,100696.84
2023-04-06T08:06:50.672Z,100697.28
2023-04-06T08:09:17.199Z,100697.28
2023-04-06T08:11:45.370Z,100698.47
2023-04-06T08:14:11.899Z,100696.03
2023-04-06T08:16:38.420Z,100698.75
2023-04-06T08:19:05.602Z,100699.94
2023-04-06T08:21:32.175Z,100697.44
2023-04-06T08:23:59.076Z,100691.44
2023-04-06T08:26:26.388Z,100695.00
2023-04-06T08:28:52.898Z,100695.22
2023-04-06T08:31:19.565Z,100689.59
2023-04-06T08:33:46.289Z,100694.34
2023-04-06T08:36:14.737Z,100689.44
2023-04-06T08:38:42.311Z,100690.94
2023-04-06T08:41:10.032Z,100686.59
2023-04-06T08:43:45.235Z,100688.88
2023-04-06T08:46:12.486Z,100691.22
2023-04-06T08:48:43.962Z,100692.16
2023-04-06T08:51:11.226Z,100696.66
2023-04-06T08:53:38.195Z,100686.00
2023-04-06T08:56:05.174Z,100679.72
2023-04-06T08:58:38.508Z,100677.66
2023-04-06T09:01:12.349Z,100682.81
2023-04-06T09:03:41.539Z,100681.47
2023-04-06T09:06:09.729Z,100670.63
2023-04-06T09:08:38.801Z,100673.47
2023-04-06T09:11:05.976Z,100679.78
2023-04-06T09:13:44.772Z,100682.09
2023-04-06T09:16:11.403Z,100675.78
2023-04-06T09:18:38.137Z,100675.06
2023-04-06T09:21:07.074Z,100685.00
2023-04-06T09:23:33.816Z,100671.19
2023-04-06T09:26:13.624Z,100674.38
2023-04-06T09:28:56.118Z,100666.22
2023-04-06T09:31:23.685Z,100671.19
2023-04-06T09:33:50.808Z,100671.69
2023-04-06T09:36:17.397Z,100666.06
2023-04-06T09:38:58.587Z,100666.06
2023-04-06T09:41:36.432Z,100673.94
2023-04-06T09:44:12.839Z,100674.13
2023-04-06T09:46:57.805Z,100676.16
2023-04-06T09:49:28.965Z,100666.09
2023-04-06T09:52:00.722Z,100660.44
2023-04-06T09:54:30.521Z,100667.16
2023-04-06T09:57:24.730Z,100665.81
2023-04-06T10:00:04.613Z,100660.88
2023-04-06T10:02:35.859Z,100653.81
2023-04-06T10:05:20.549Z,100656.13
2023-04-06T10:10:23.716Z,100653.28
2023-04-06T10:12:50.841Z,100659.41
2023-04-06T10:15:19.173Z,100655.09
2023-04-06T10:17:47.768Z,100651.03
2023-04-06T10:20:24.339Z,100652.94
2023-04-06T10:23:15.093Z,100643.06
2023-04-06T10:25:53.144Z,100652.56
2023-04-06T10:28:21.124Z,100649.66
2023-04-06T10:30:47.820Z,100642.38
2023-04-06T10:33:21.167Z,100644.66
2023-04-06T10:35:48.108Z,100644.28
2023-04-06T10:38:15.325Z,100641.31
2023-04-06T10:40:48.011Z,100639.22
2023-04-06T10:43:23.320Z,100631.56
2023-04-06T10:45:57.917Z,100635.28
2023-04-06T10:48:25.042Z,100661.13
2023-04-06T10:50:54.940Z,100649.69
2023-04-06T10:53:28.872Z,100640.97
2023-04-06T10:55:57.205Z,100629.75
2023-04-06T10:58:28.267Z,100634.41
2023-04-06T11:00:56.223Z,100622.44
2023-04-06T11:03:22.896Z,100623.28
2023-04-06T11:05:51.222Z,100624.72
2023-04-06T11:08:24.764Z,100628.13
2023-04-06T11:10:51.563Z,100621.53
2023-04-06T11:13:18.462Z,100609.84
2023-04-06T11:15:45.260Z,100615.00
2023-04-06T11:18:12.486Z,100603.31
2023-04-06T11:20:39.217Z,100593.59
2023-04-06T11:23:05.982Z,100602.09
2023-04-06T11:25:33.479Z,100593.59
2023-04-06T11:28:00.375Z,100586.59
2023-04-06T11:30:27.215Z,100586.94
2023-04-06T11:33:02.046Z,100582.91
2023-04-06T11:35:32.372Z,100569.38
2023-04-06T11:38:00.470Z,100584.78
2023-04-06T11:40:28.767Z,100581.72
2023-04-06T11:42:56.293Z,100577.69
2023-04-06T11:45:23.490Z,100572.47
2023-04-06T11:48:01.665Z,100569.06
2023-04-06T11:50:36.727Z,100570.84
2023-04-06T11:53:03.916Z,100575.63
2023-04-06T11:55:38.456Z,100576.03
2023-04-06T11:58:05.257Z,100570.38
2023-04-06T12:00:35.464Z,100559.72
2023-04-06T12:03:02.252Z,100560.44
2023-04-06T12:05:28.970Z,100563.69
2023-04-06T12:07:55.669Z,100554.00
2023-04-06T12:10:22.340Z,100557.69
2023-04-06T12:12:48.820Z,100542.09
2023-04-06T12:15:15.638Z,100553.41
2023-04-06T12:17:42.446Z,100547.06
2023-04-06T12:20:18.010Z,100538.84
2023-04-06T12:22:51.600Z,100544.94
2023-04-06T12:25:18.347Z,100536.75
2023-04-06T12:27:44.842Z,100534.72
2023-04-06T12:30:12.057Z,100545.09
2023-04-06T12:32:38.803Z,100533.13
2023-04-06T12:35:05.664Z,100536.00
2023-04-06T12:37:34.776Z,100527.81
2023-04-06T12:40:02.257Z,100534.84
2023-04-06T12:42:28.954Z,100516.22
2023-04-06T12:44:55.551Z,100515.06
2023-04-06T12:47:23.765Z,100521.53
2023-04-06T12:49:51.015Z,100525.66
2023-04-06T12:52:17.807Z,100528.63
2023-04-06T12:54:44.440Z,100508.84
2023-04-06T12:57:11.014Z,100514.03
2023-04-06T12:59:38.247Z,100515.19
2023-04-06T13:02:05.890Z,100500.00
2023-04-06T13:04:32.559Z,100498.91
2023-04-06T13:06:59.107Z,100495.22
2023-04-06T13:09:25.747Z,100508.06
2023-04-06T13:11:52.558Z,100512.34
2023-04-06T13:14:19.098Z,100504.41
2023-04-06T13:16:45.897Z,100507.84
2023-04-06T13:19:12.594Z,100498.09
2023-04-06T13:21:40.523Z,100501.16
2023-04-06T13:24:07.184Z,100492.16
2023-04-06T13:26:33.802Z,100488.06
2023-04-06T13:29:03.703Z,100490.53
2023-04-06T13:31:30.618Z,100490.38
2023-04-06T13:33:57.203Z,100484.81
2023-04-06T13:36:23.958Z,100491.28
2023-04-06T13:38:50.849Z,100481.53
2023-04-06T13:41:22.414Z,100485.03
2023-04-06T13:43:49.658Z,100478.09
2023-04-06T13:46:16.395Z,100484.81
2023-04-06T13:48:43.427Z,100474.09
2023-04-06T13:51:11.317Z,100464.09
2023-04-06T13:53:39.552Z,100466.41
2023-04-06T13:56:08.173Z,100468.00
2023-04-06T13:58:34.728Z,100468.91
2023-04-06T14:01:11.039Z,100471.47
2023-04-06T14:03:38.156Z,100480.47
2023-04-06T14:08:44.381Z,100466.88
2023-04-06T14:11:15.152Z,100477.59
2023-04-06T14:13:41.676Z,100463.31
2023-04-06T14:16:08.411Z,100463.44
2023-04-06T14:18:35.337Z,100465.44
2023-04-06T14:21:02.015Z,100470.31
2023-04-06T14:23:29.273Z,100467.59
2023-04-06T14:26:04.542Z,100465.13
2023-04-06T14:28:31.796Z,100460.91
2023-04-06T14:31:04.009Z,100459.69
2023-04-06T14:33:31.582Z,100465.41
2023-04-06T14:35:58.055Z,100467.13
2023-04-06T14:38:24.536Z,100460.66
2023-04-06T14:40:51.096Z,100455.84
2023-04-06T14:43:17.705Z,100451.28
2023-04-06T14:45:44.311Z,100457.63
2023-04-06T14:48:12.923Z,100463.78
2023-04-06T14:50:47.145Z,100451.75
2023-04-06T14:53:14.164Z,100459.78
2023-04-06T14:55:42.082Z,100461.63
2023-04-06T14:58:08.603Z,100451.31
2023-04-06T15:00:35.385Z,100456.38
2023-04-06T15:03:02.193Z,100455.47
2023-04-06T15:05:28.722Z,100453.25
2023-04-06T15:07:55.348Z,100453.06
2023-04-06T15:10:21.871Z,100452.91
2023-04-06T15:12:48.314Z,100457.47
2023-04-06T15:15:15.098Z,100455.91
2023-04-06T15:17:41.544Z,100454.34
2023-04-06T15:20:08.355Z,100454.19
2023-04-06T15:22:34.976Z,100452.84
2023-04-06T15:25:01.674Z,100454.69
2023-04-06T15:27:28.119Z,100453.53
2023-04-06T15:29:54.883Z,100451.56
2023-04-06T15:32:21.637Z,100453.41
2023-04-06T15:34:48.406Z,100452.72
2023-04-06T15:37:15.110Z,100450.94
2023-04-06T15:39:41.702Z,100447.75
2023-04-06T15:42:08.444Z,100453.94
2023-04-06T15:44:34.972Z,100460.94
2023-04-06T15:47:01.514Z,100452.81
2023-04-06T15:49:28.667Z,100452.09
2023-04-06T15:51:55.201Z,100453.13
2023-04-06T15:54:21.833Z,100455.38
2023-04-06T15:56:48.948Z,100444.59
2023-04-06T15:59:16.616Z,100448.09
2023-04-06T16:01:43.441Z,100450.03
2023-04-06T16:04:11.555Z,100444.78
2023-04-06T16:06:38.416Z,100452.63
2023-04-06T16:09:04.957Z,100450.28
2023-04-06T16:11:32.600Z,100453.72
2023-04-06T16:13:59.594Z,100452.44
2023-04-06T16:16:27.273Z,100443.56
2023-04-06T16:18:53.879Z,100451.19
2023-04-06T16:21:20.385Z,100450.63
2023-04-06T16:23:47.351Z,100440.16
2023-04-06T16:26:15.557Z,100441.13
2023-04-06T16:28:42.738Z,100447.94
2023-04-06T16:31:17.766Z,100442.28
2023-04-06T16:33:44.582Z,100436.63
2023-04-06T16:36:12.138Z,100440.78
2023-04-06T16:38:38.762Z,100444.53
2023-04-06T16:41:05.301Z,100446.97
2023-04-06T16:43:32.450Z,100445.31
2023-04-06T16:45:59.152Z,100442.94
2023-04-06T16:48:25.789Z,100447.91
2023-04-06T16:50:52.441Z,100446.94
2023-04-06T16:53:18.880Z,100444.31
2023-04-06T16:55:45.378Z,100447.47
2023-04-06T16:58:12.013Z,100446.06
2023-04-06T17:00:38.415Z,100445.06
2023-04-06T17:03:05.242Z,100441.41
2023-04-06T17:05:34.565Z,100454.53
2023-04-06T17:08:01.011Z,100464.09
2023-04-06T17:10:33.187Z,100459.91
2023-04-06T17:13:03.711Z,100453.91
2023-04-06T17:15:31.730Z,100455.47
2023-04-06T17:17:58.540Z,100461.81
2023-04-06T17:20:25.069Z,100465.94
2023-04-06T17:22:51.816Z,100462.50
2023-04-06T17:25:18.742Z,100466.09
2023-04-06T17:27:45.497Z,100469.50
2023-04-06T17:30:12.701Z,100478.34
2023-04-06T17:32:39.508Z,100470.69
2023-04-06T17:35:06.417Z,100464.53
2023-04-06T17:37:33.042Z,100477.75
2023-04-06T17:39:59.730Z,100476.00
2023-04-06T17:42:26.434Z,100468.56
2023-04-06T17:44:53.330Z,100467.41
2023-04-06T17:47:20.059Z,100471.16
2023-04-06T17:49:46.926Z,100480.72
2023-04-06T17:52:13.481Z,100476.03
2023-04-06T17:54:39.908Z,100482.28
2023-04-06T17:57:07.631Z,100483.81
2023-04-06T17:59:34.519Z,100485.03
2023-04-06T18:02:02.963Z,100487.97
2023-04-06T18:04:29.778Z,100509.00
2023-04-06T18:06:56.338Z,100505.97
2023-04-06T18:09:22.805Z,100505.44
2023-04-06T18:11:49.425Z,100513.25
2023-04-06T18:14:16.371Z,100516.91
2023-04-06T18:16:43.242Z,100516.28
2023-04-06T18:19:09.815Z,100517.63
2023-04-06T18:21:36.491Z,100512.97
2023-04-06T18:24:05.125Z,100532.69
2023-04-06T18:26:33.685Z,100536.41
2023-04-06T18:29:00.617Z,100539.13
2023-04-06T18:31:27.465Z,100537.91
2023-04-06T18:33:54.751Z,100540.81
2023-04-06T18:36:21.692Z,100550.22
2023-04-06T18:38:48.823Z,100545.84
2023-04-06T18:41:16.775Z,100552.63
2023-04-06T18:43:43.387Z,100541.56
2023-04-06T18:46:14.831Z,100554.31
2023-04-06T18:48:42.232Z,100562.44
2023-04-06T18:51:08.959Z,100560.19
2023-04-06T18:53:37.302Z,100557.38
2023-04-06T18:56:16.550Z,100570.47
2023-04-06T18:58:43.437Z,100572.59
2023-04-06T19:01:10.159Z,100574.63
2023-04-06T19:03:37.543Z,100585.53
2023-04-06T19:06:07.316Z,100580.41
2023-04-06T19:08:33.777Z,100582.16
2023-04-06T19:11:05.898Z,100595.19
2023-04-06T19:13:32.562Z,100592.31
2023-04-06T19:15:58.971Z,100596.50
2023-04-06T19:18:25.732Z,100593.03
2023-04-06T19:20:52.762Z,100596.44
2023-04-06T19:23:19.566Z,100599.47
2023-04-06T19:25:46.012Z,100597.06
2023-04-06T19:28:14.736Z,100594.97
2023-04-06T19:30:42.108Z,100608.19
2023-04-06T19:33:09.245Z,100594.56
2023-04-06T19:35:35.770Z,100599.09
2023-04-06T19:38:02.493Z,100598.75
2023-04-06T19:40:28.918Z,100598.34
2023-04-06T19:42:55.731Z,100606.56
2023-04-06T19:45:22.171Z,100606.47
2023-04-06T19:47:48.937Z,100604.91
2023-04-06T19:50:15.603Z,100601.81
2023-04-06T19:52:42.118Z,100602.19
2023-04-06T19:55:08.892Z,100598.31
2023-04-06T19:57:35.472Z,100603.59
2023-04-06T20:00:02.115Z,100597.38
2023-04-06T20:02:36.237Z,100603.38
2023-04-06T20:05:03.042Z,100597.25
2023-04-06T20:07:29.677Z,100606.88
2023-04-06T20:09:56.303Z,100611.91
2023-04-06T20:12:22.940Z,100605.25
2023-04-06T20:14:50.874Z,100602.75
2023-04-06T20:17:17.569Z,100600.19
2023-04-06T20:19:43.996Z,100601.88
2023-04-06T20:22:10.805Z,100598.63
2023-04-06T20:24:37.252Z,100596.88
2023-04-06T20:27:04.205Z,100601.03
2023-04-06T20:29:30.757Z,100601.03
2023-04-06T20:31:58.460Z,100596.03
2023-04-06T20:34:28.647Z,100596.84
2023-04-06T20:36:56.359Z,100594.25
2023-04-06T20:39:23.939Z,100596.06
2023-04-06T20:41:51.495Z,100599.91
2023-04-06T20:44:19.113Z,100591.19
2023-04-06T20:46:45.927Z,100594.56
2023-04-06T20:49:12.780Z,100597.38
2023-04-06T20:51:39.282Z,100583.47
2023-04-06T20:54:05.831Z,100583.84
2023-04-06T20:56:32.314Z,100577.78
2023-04-06T20:58:59.787Z,100585.66
2023-04-06T21:01:27.347Z,100583.38
2023-04-06T21:03:54.136Z,100575.50
2023-04-06T21:06:21.693Z,100585.03
2023-04-06T21:08:48.177Z,100577.13
2023-04-06T21:11:14.748Z,100569.44
2023-04-06T21:13:41.276Z,100579.22
2023-04-06T21:16:07.973Z,100562.59
2023-04-06T21:18:34.484Z,100568.13
2023-04-06T21:21:01.219Z,100571.69
2023-04-06T21:23:27.739Z,100565.78
2023-04-06T21:25:57.353Z,100563.13
2023-04-06T21:28:25.401Z,100555.47
2023-04-06T21:30:53.165Z,100558.94
2023-04-06T21:33:20.449Z,100560.63
2023-04-06T21:35:46.863Z,100551.97
2023-04-06T21:38:13.943Z,100553.66
2023-04-06T21:40:40.566Z,100552.81
2023-04-06T21:43:07.075Z,100542.47
2023-04-06T21:45:33.621Z,100542.72
2023-04-06T21:48:00.411Z,100545.28
2023-04-06T21:50:26.964Z,100547.78
2023-04-06T21:52:53.721Z,100540.16
2023-04-06T21:55:20.743Z,100540.97
2023-04-06T21:57:47.154Z,100543.00
2023-04-06T22:00:14.191Z,100540.34
2023-04-06T22:02:45.576Z,100530.19
2023-04-06T22:05:12.870Z,100523.25
2023-04-06T22:07:39.385Z,100527.91
2023-04-06T22:10:06.403Z,100512.81
2023-04-06T22:12:32.898Z,100513.81
2023-04-06T22:14:59.889Z,100513.88
2023-04-06T22:17:27.256Z,100515.59
2023-04-06T22:19:54.084Z,100514.94
2023-04-06T22:22:20.786Z,100509.75
2023-04-06T22:24:47.387Z,100510.59
2023-04-06T22:27:14.146Z,100508.22
2023-04-06T22:29:40.741Z,100505.63
2023-04-06T22:32:07.320Z,100504.84
2023-04-06T22:34:33.787Z,100502.16
2023-04-06T22:37:00.459Z,100504.66
2023-04-06T22:39:26.974Z,100500.38
2023-04-06T22:41:53.625Z,100501.31
2023-04-06T22:44:20.309Z,100506.28
2023-04-06T22:46:46.922Z,100503.81
2023-04-06T22:49:13.681Z,100495.16
2023-04-06T22:51:41.898Z,100501.31
2023-04-06T22:54:12.502Z,100493.44
2023-04-06T22:56:38.976Z,100490.00
2023-04-06T22:59:05.441Z,100491.59
2023-04-06T23:01:32.171Z,100481.72
2023-04-06T23:03:58.933Z,100487.59
2023-04-06T23:06:27.405Z,100485.09
2023-04-06T23:08:53.910Z,100487.50
2023-04-06T23:11:21.185Z,100480.78
2023-04-06T23:13:47.768Z,100482.50
2023-04-06T23:16:14.316Z,100478.09
2023-04-06T23:18:40.868Z,100474.75
2023-04-06T23:21:07.996Z,100473.03
2023-04-06T23:23:34.578Z,100465.53
2023-04-06T23:26:01.213Z,100466.44
2023-04-06T23:28:27.782Z,100465.34
2023-04-06T23:30:54.323Z,100462.78
2023-04-06T23:33:20.875Z,100462.69
2023-04-06T23:35:47.438Z,100456.66
2023-04-06T23:38:14.091Z,100454.97
2023-04-06T23:40:40.787Z,100457.53
2023-04-06T23:43:07.454Z,100458.66
2023-04-06T23:45:33.924Z,100449.00
2023-04-06T23:48:00.649Z,100443.81
2023-04-06T23:50:27.103Z,100435.97
2023-04-06T23:52:53.753Z,100439.38
2023-04-06T23:55:20.318Z,100432.44
2023-04-06T23:57:46.902Z,100434.25
